Time;durP1;ratioP1;P1;durP2;ratioP2;P2;SDS_P1;SDS_P2;PMS_P1;PMS_P2;Temp;Humidity;BMP_temperature;BMP_pressure;BME280_temperature;BME280_humidity;BME280_pressure;Samples;Min_cycle;Max_cycle;Signal;HPM_P1;HPM_P2
2023/04/07 00:00:26;;;;;;;3.22;1.67;;;8.60;99.90;;;;;;20731273;28;20485;-41
2023/04/07 00:10:27;;;;;;;19.85;2.33;;;8.40;99.90;;;;;;20739329;28;20111;-41
2023/04/07 00:20:31;;;;;;;5.07;2.60;;;8.50;99.90;;;;;;20725395;28;20038;-41
2023/04/07 00:30:32;;;;;;;6.00;3.60;;;8.50;99.90;;;;;;20724143;28;20041;-41
2023/04/07 00:40:34;;;;;;;7.15;2.45;;;8.40;99.90;;;;;;20737186;28;20050;-41
2023/04/07 00:50:35;;;;;;;5.20;2.95;;;8.50;99.90;;;;;;20725962;28;20038;-41
2023/04/07 01:00:42;;;;;;;7.28;2.63;;;8.40;99.90;;;;;;20738608;28;20520;-41
2023/04/07 01:10:50;;;;;;;;;;;8.40;99.90;;;;;;20750331;28;20858;-41
2023/04/07 01:20:54;;;;;;;3.97;1.80;;;8.40;99.90;;;;;;20736617;28;19925;-41
2023/04/07 01:30:58;;;;;;;4.70;2.08;;;8.40;99.90;;;;;;20822827;28;20432;-41
2023/04/07 01:41:00;;;;;;;5.13;2.10;;;8.40;99.90;;;;;;20751086;28;20545;-41
2023/04/07 01:51:04;;;;;;;2.75;1.65;;;8.50;99.90;;;;;;20737371;28;20119;-41
2023/04/07 02:01:05;;;;;;;3.03;0.82;;;8.40;99.90;;;;;;20741924;28;20496;-41
2023/04/07 02:11:07;;;;;;;4.38;1.80;;;8.40;99.90;;;;;;20742810;28;20037;-41
2023/04/07 02:21:09;;;;;;;8.88;1.88;;;8.40;99.90;;;;;;20725688;28;20796;-41
2023/04/07 02:31:12;;;;;;;5.30;2.20;;;8.50;99.90;;;;;;20730769;28;20119;-41
2023/04/07 02:41:13;;;;;;;4.07;1.60;;;8.50;99.90;;;;;;20726618;28;20460;-41
2023/04/07 02:51:14;;;;;;;5.78;1.67;;;8.50;99.90;;;;;;20794476;28;20446;-41
2023/04/07 03:01:15;;;;;;;5.70;1.50;;;8.50;99.90;;;;;;20807772;28;20604;-42
2023/04/07 03:11:16;;;;;;;4.32;1.38;;;8.50;99.90;;;;;;20814675;28;20622;-41
2023/04/07 03:21:17;;;;;;;2.65;0.98;;;8.40;99.90;;;;;;20808170;28;20037;-41
2023/04/07 03:31:18;;;;;;;5.03;1.90;;;8.50;99.90;;;;;;20805170;28;20033;-41
2023/04/07 03:41:19;;;;;;;5.03;1.88;;;8.50;99.90;;;;;;20740032;28;20041;-42
2023/04/07 03:51:20;;;;;;;5.82;2.50;;;8.50;99.90;;;;;;20759922;28;20103;-41
2023/04/07 04:01:21;;;;;;;6.13;2.03;;;8.50;99.90;;;;;;20798490;28;20119;-42
2023/04/07 04:11:22;;;;;;;4.20;1.38;;;8.50;99.90;;;;;;20802617;28;20092;-41
2023/04/07 04:21:25;;;;;;;5.25;2.00;;;8.50;99.90;;;;;;20807725;28;20037;-41
2023/04/07 04:31:26;;;;;;;5.47;2.03;;;8.40;99.90;;;;;;20742418;28;20076;-41
2023/04/07 04:41:27;;;;;;;4.75;2.65;;;8.40;99.90;;;;;;20738813;28;20564;-41
2023/04/07 04:51:29;;;;;;;9.02;2.05;;;8.40;99.90;;;;;;20760196;28;20440;-41
2023/04/07 05:01:30;;;;;;;3.88;1.40;;;8.40;99.90;;;;;;20764805;28;20111;-41
2023/04/07 05:11:30;;;;;;;5.82;1.35;;;8.40;99.90;;;;;;20760541;28;20049;-41
2023/04/07 05:21:31;;;;;;;3.42;1.50;;;8.30;99.90;;;;;;20761845;28;20101;-41
2023/04/07 05:31:36;;;;;;;4.45;1.15;;;8.30;99.90;;;;;;20789081;28;20151;-42
2023/04/07 05:41:37;;;;;;;2.92;1.30;;;8.40;99.90;;;;;;20740199;28;20555;-42
2023/04/07 05:51:38;;;;;;;3.88;1.83;;;8.40;99.90;;;;;;20771735;28;21003;-41
2023/04/07 06:01:39;;;;;;;2.53;1.17;;;8.40;99.90;;;;;;20798075;28;20488;-41
2023/04/07 06:11:40;;;;;;;4.35;1.30;;;8.50;99.90;;;;;;20776957;28;20034;-41
2023/04/07 06:21:41;;;;;;;4.35;1.90;;;8.40;99.00;;;;;;20775179;28;20102;-42
2023/04/07 06:31:42;;;;;;;3.92;1.08;;;8.50;99.90;;;;;;20777753;28;20059;-41
2023/04/07 06:41:43;;;;;;;2.42;1.23;;;8.50;99.90;;;;;;20761409;28;20118;-41
2023/04/07 06:51:44;;;;;;;4.18;1.17;;;8.50;99.90;;;;;;20768031;28;20056;-41
2023/04/07 07:01:45;;;;;;;3.40;0.82;;;8.60;99.90;;;;;;20759606;28;20319;-41
2023/04/07 07:11:46;;;;;;;9.43;1.30;;;8.60;99.90;;;;;;20766546;28;20060;-41
2023/04/07 07:21:47;;;;;;;1.52;0.85;;;8.60;99.90;;;;;;20769744;28;20041;-42
2023/04/07 07:31:48;;;;;;;6.68;2.25;;;8.70;99.90;;;;;;20759192;28;20042;-41
2023/04/07 07:41:50;;;;;;;3.55;1.15;;;8.70;99.90;;;;;;20774004;28;20046;-41
2023/04/07 07:51:51;;;;;;;3.10;1.10;;;8.70;99.90;;;;;;20772837;28;22285;-41
2023/04/07 08:01:52;;;;;;;3.25;1.33;;;8.80;99.90;;;;;;20818969;28;20166;-42
2023/04/07 08:11:53;;;;;;;2.78;1.23;;;8.80;99.80;;;;;;20808201;28;20037;-42
2023/04/07 08:21:54;;;;;;;7.80;1.63;;;9.00;88.80;;;;;;20816130;28;20540;-41
2023/04/07 08:31:55;;;;;;;1.88;0.60;;;9.10;69.20;;;;;;20819325;28;20084;-41
2023/04/07 08:41:57;;;;;;;2.38;0.77;;;9.20;49.90;;;;;;20808734;28;20589;-41
2023/04/07 08:52:00;;;;;;;1.60;0.68;;;9.20;58.70;;;;;;20807560;28;20229;-42
2023/04/07 09:02:03;;;;;;;3.42;1.02;;;9.30;58.40;;;;;;20822728;28;20045;-42
2023/04/07 09:12:04;;;;;;;2.17;1.08;;;9.30;44.50;;;;;;20804741;28;20052;-42
2023/04/07 09:22:07;;;;;;;6.13;1.30;;;9.30;41.40;;;;;;20829099;28;20056;-42
2023/04/07 09:32:08;;;;;;;9.43;1.77;;;9.30;46.00;;;;;;20821359;28;20037;-42
2023/04/07 09:42:09;;;;;;;3.50;2.15;;;9.30;51.50;;;;;;20830553;28;20045;-42
2023/04/07 09:52:11;;;;;;;2.75;1.23;;;9.40;47.90;;;;;;20818075;28;20042;-41
2023/04/07 10:02:12;;;;;;;4.35;1.23;;;9.60;35.30;;;;;;20762951;28;20526;-41
2023/04/07 10:12:14;;;;;;;2.70;0.90;;;9.60;27.70;;;;;;20775965;28;20529;-41
2023/04/07 10:22:16;;;;;;;5.05;1.58;;;9.60;26.70;;;;;;20769296;28;20030;-41
2023/04/07 10:32:17;;;;;;;6.80;2.30;;;9.60;24.20;;;;;;20771019;28;20041;-41
2023/04/07 10:42:36;;;;;;;4.00;1.52;;;9.80;25.80;;;;;;20777463;28;20103;-42
2023/04/07 10:52:37;;;;;;;4.40;0.93;;;9.80;28.50;;;;;;20756316;28;20938;-41
2023/04/07 11:02:39;;;;;;;3.80;1.10;;;10.00;24.30;;;;;;20767872;28;20951;-42
2023/04/07 11:12:40;;;;;;;3.70;1.15;;;10.10;14.20;;;;;;20773338;28;20092;-41
2023/04/07 11:22:41;;;;;;;4.05;1.40;;;10.00;7.10;;;;;;20735303;28;20054;-41
2023/04/07 11:32:47;;;;;;;4.70;1.45;;;10.10;7.70;;;;;;20749419;28;20060;-41
2023/04/07 11:42:48;;;;;;;4.88;2.22;;;10.20;12.10;;;;;;20751871;28;21922;-42
2023/04/07 11:52:49;;;;;;;3.13;1.15;;;10.30;5.00;;;;;;20758549;28;20038;-42
2023/04/07 12:02:50;;;;;;;2.60;0.85;;;10.40;1.00;;;;;;20764873;28;20045;-43
2023/04/07 12:12:51;;;;;;;4.60;1.75;;;10.40;1.00;;;;;;20774801;28;20060;-43
2023/04/07 12:22:52;;;;;;;4.55;1.83;;;10.40;1.00;;;;;;20771436;28;20048;-42
2023/04/07 12:32:54;;;;;;;4.47;1.13;;;10.30;1.00;;;;;;20764778;28;20455;-43
2023/04/07 12:42:57;;;;;;;5.32;2.28;;;10.30;2.30;;;;;;20760726;28;20042;-42
2023/04/07 12:53:02;;;;;;;2.90;1.10;;;10.20;5.10;;;;;;20777093;28;20052;-43
2023/04/07 13:03:03;;;;;;;4.80;1.38;;;9.90;6.30;;;;;;20775950;28;20120;-41
2023/04/07 13:13:04;;;;;;;4.60;1.27;;;9.80;12.80;;;;;;20777068;28;20100;-42
2023/04/07 13:23:05;;;;;;;4.28;1.65;;;9.80;19.00;;;;;;20784735;28;20113;-42
2023/04/07 13:33:06;;;;;;;3.95;1.35;;;9.80;22.00;;;;;;20779328;28;20053;-42
2023/04/07 13:43:10;;;;;;;4.15;1.45;;;9.90;26.50;;;;;;20772764;28;20064;-42
2023/04/07 13:53:11;;;;;;;8.90;1.33;;;10.00;30.80;;;;;;20751895;28;20053;-42
2023/04/07 14:03:12;;;;;;;6.80;1.48;;;10.00;29.90;;;;;;20770511;28;20182;-42
2023/04/07 14:13:13;;;;;;;4.35;1.45;;;10.10;26.20;;;;;;20761709;28;20071;-42
2023/04/07 14:23:14;;;;;;;2.33;1.10;;;10.20;30.00;;;;;;20783135;28;20038;-42
2023/04/07 14:33:16;;;;;;;2.20;1.27;;;10.20;31.80;;;;;;20773554;28;20438;-42
2023/04/07 14:43:17;;;;;;;2.60;1.20;;;10.10;33.30;;;;;;20781156;28;20041;-42
2023/04/07 14:53:18;;;;;;;3.90;1.23;;;10.00;27.00;;;;;;20769818;28;20099;-42
2023/04/07 15:03:19;;;;;;;2.40;1.08;;;10.00;30.60;;;;;;20787394;28;20447;-42
2023/04/07 15:13:20;;;;;;;2.78;1.48;;;9.90;15.90;;;;;;20771667;28;20508;-42
2023/04/07 15:23:21;;;;;;;6.53;2.00;;;9.90;16.50;;;;;;20761437;28;20037;-42
2023/04/07 15:33:23;;;;;;;7.97;2.92;;;9.80;18.10;;;;;;20774435;28;20044;-41
2023/04/07 15:43:24;;;;;;;2.95;1.17;;;9.70;21.30;;;;;;20766867;28;20447;-42
2023/04/07 15:53:25;;;;;;;3.35;1.40;;;9.70;20.40;;;;;;20755201;28;20099;-42
2023/04/07 16:03:27;;;;;;;3.22;1.52;;;9.60;23.80;;;;;;20771015;28;20079;-43
2023/04/07 16:13:28;;;;;;;4.63;2.45;;;9.50;33.50;;;;;;20763641;28;20559;-43
2023/04/07 16:23:29;;;;;;;3.78;1.42;;;9.60;36.60;;;;;;20768468;28;20111;-43
2023/04/07 16:33:30;;;;;;;3.92;1.50;;;9.60;37.10;;;;;;20762074;28;20034;-43
2023/04/07 16:43:31;;;;;;;4.70;1.48;;;9.50;35.30;;;;;;20761941;28;20029;-42
2023/04/07 16:53:32;;;;;;;8.15;3.38;;;9.50;41.90;;;;;;20767069;28;20045;-43
2023/04/07 17:03:34;;;;;;;7.78;3.20;;;9.60;36.30;;;;;;20784406;28;20432;-43
2023/04/07 17:13:36;;;;;;;5.43;2.40;;;9.60;38.10;;;;;;20763914;28;20083;-43
2023/04/07 17:23:37;;;;;;;4.90;2.20;;;9.70;36.60;;;;;;20761563;28;21700;-42
2023/04/07 17:33:38;;;;;;;5.60;1.98;;;9.70;31.80;;;;;;20767153;28;20038;-42
2023/04/07 17:43:39;;;;;;;4.88;2.00;;;9.60;23.90;;;;;;20772835;28;20045;-42
2023/04/07 17:53:40;;;;;;;7.00;1.92;;;9.60;27.80;;;;;;20752729;28;20036;-42
2023/04/07 18:03:42;;;;;;;4.10;2.17;;;9.60;30.40;;;;;;20763980;28;20037;-42
2023/04/07 18:13:43;;;;;;;10.55;3.67;;;9.60;29.80;;;;;;20778570;28;20038;-43
2023/04/07 18:23:44;;;;;;;6.30;2.95;;;9.60;34.80;;;;;;20776466;28;20123;-43
2023/04/07 18:33:45;;;;;;;6.97;2.97;;;9.40;46.00;;;;;;20765984;28;20037;-42
2023/04/07 18:43:47;;;;;;;5.47;2.95;;;9.40;57.40;;;;;;20777887;28;20046;-43
2023/04/07 18:53:48;;;;;;;8.20;3.58;;;9.30;70.50;;;;;;20769629;28;20041;-42
2023/04/07 19:03:49;;;;;;;11.77;4.85;;;9.30;82.30;;;;;;20766664;28;20040;-43
2023/04/07 19:13:52;;;;;;;11.07;6.15;;;9.20;92.60;;;;;;20763758;28;20037;-42
2023/04/07 19:23:55;;;;;;;12.13;5.28;;;9.20;99.90;;;;;;20766751;28;20041;-43
2023/04/07 19:33:57;;;;;;;10.73;5.15;;;9.30;99.30;;;;;;20778685;28;20994;-43
2023/04/07 19:43:58;;;;;;;9.50;5.20;;;9.20;96.90;;;;;;20780341;28;20041;-42
2023/04/07 19:53:59;;;;;;;12.18;4.68;;;9.20;99.90;;;;;;20767054;28;20041;-42
2023/04/07 20:04:00;;;;;;;18.63;6.97;;;9.20;99.90;;;;;;20761654;28;20038;-42
2023/04/07 20:14:01;;;;;;;18.80;7.75;;;9.20;99.90;;;;;;20768823;28;20037;-42
2023/04/07 20:24:02;;;;;;;14.25;7.75;;;9.10;99.90;;;;;;20766229;28;20080;-43
2023/04/07 20:34:04;;;;;;;14.23;7.95;;;9.10;99.90;;;;;;20760949;28;20037;-42
2023/04/07 20:44:05;;;;;;;14.68;8.35;;;9.20;99.90;;;;;;20760339;28;20172;-42
2023/04/07 20:54:06;;;;;;;20.25;9.57;;;9.10;99.90;;;;;;20756337;28;20029;-42
2023/04/07 21:04:08;;;;;;;21.75;9.52;;;9.10;99.90;;;;;;20770044;28;20033;-43
2023/04/07 21:14:10;;;;;;;20.90;10.18;;;9.10;99.90;;;;;;20766107;28;20025;-42
2023/04/07 21:24:11;;;;;;;22.25;9.32;;;9.10;99.90;;;;;;20780648;28;20041;-42
2023/04/07 21:34:12;;;;;;;24.25;10.48;;;9.10;99.90;;;;;;20772529;28;20034;-42
2023/04/07 21:44:18;;;;;;;16.70;9.40;;;9.10;99.90;;;;;;20776555;28;20045;-42
2023/04/07 21:54:19;;;;;;;16.83;8.65;;;9.10;99.90;;;;;;20780558;28;20037;-42
2023/04/07 22:04:20;;;;;;;16.98;8.57;;;9.10;99.90;;;;;;20775245;28;20107;-42
2023/04/07 22:14:23;;;;;;;17.90;8.63;;;9.10;99.90;;;;;;20790839;28;20037;-42
2023/04/07 22:24:24;;;;;;;22.02;10.57;;;9.10;99.90;;;;;;20777889;28;20037;-42
2023/04/07 22:34:25;;;;;;;20.83;10.90;;;9.10;99.90;;;;;;20777542;28;20048;-42
2023/04/07 22:44:26;;;;;;;20.45;10.15;;;9.10;99.90;;;;;;20769320;28;20049;-42
2023/04/07 22:54:27;;;;;;;21.48;10.80;;;9.00;99.90;;;;;;20756470;28;20033;-42
2023/04/07 23:04:28;;;;;;;17.30;8.98;;;9.00;99.90;;;;;;20727927;28;20038;-42
2023/04/07 23:14:30;;;;;;;12.60;5.85;;;9.00;99.90;;;;;;20817174;28;20036;-42
2023/04/07 23:24:31;;;;;;;12.30;6.20;;;9.10;99.90;;;;;;20813487;28;20030;-42
2023/04/07 23:34:32;;;;;;;10.82;5.65;;;9.10;99.90;;;;;;20819605;28;20044;-42
2023/04/07 23:44:33;;;;;;;16.88;6.93;;;9.00;99.90;;;;;;20812048;28;20037;-42
2023/04/07 23:54:35;;;;;;;11.48;4.90;;;8.80;99.90;;;;;;20822604;28;20064;-42
